createdAt,value
2019-03-09T00:00:07.860Z,14.93
2019-03-09T00:02:37.028Z,17.00
2019-03-09T00:05:06.815Z,13.13
2019-03-09T00:07:36.856Z,14.63
2019-03-09T00:10:06.706Z,14.20
2019-03-09T00:12:36.521Z,15.73
2019-03-09T00:15:06.793Z,14.27
2019-03-09T00:17:36.619Z,11.57
2019-03-09T00:20:06.043Z,14.33
2019-03-09T00:22:35.177Z,12.57
2019-03-09T00:25:27.493Z,13.00
2019-03-09T00:28:03.609Z,11.80
2019-03-09T00:30:54.689Z,14.37
2019-03-09T00:33:24.088Z,14.87
2019-03-09T00:35:54.034Z,10.93
2019-03-09T00:38:23.710Z,15.40
2019-03-09T00:40:53.129Z,13.60
2019-03-09T00:43:23.236Z,16.87
2019-03-09T00:45:52.696Z,16.97
2019-03-09T00:48:22.562Z,15.80
2019-03-09T00:50:51.973Z,21.53
2019-03-09T00:53:21.603Z,15.50
2019-03-09T00:55:50.739Z,19.40
2019-03-09T00:58:23.059Z,21.17
2019-03-09T01:00:52.170Z,22.87
2019-03-09T01:03:21.579Z,26.17
2019-03-09T01:05:50.931Z,29.17
2019-03-09T01:08:21.397Z,27.03
2019-03-09T01:10:51.304Z,31.00
2019-03-09T01:13:20.632Z,29.33
2019-03-09T01:15:49.999Z,31.70
2019-03-09T01:18:19.837Z,31.57
2019-03-09T01:20:49.223Z,31.27
2019-03-09T01:23:19.258Z,27.87
2019-03-09T01:25:49.028Z,30.60
2019-03-09T01:28:19.113Z,36.73
2019-03-09T01:30:48.913Z,28.97
2019-03-09T01:33:18.316Z,29.63
2019-03-09T01:35:48.377Z,25.07
2019-03-09T01:38:18.057Z,29.27
2019-03-09T01:40:47.625Z,30.90
2019-03-09T01:43:17.584Z,28.10
2019-03-09T01:45:47.072Z,28.73
2019-03-09T01:48:17.409Z,27.27
2019-03-09T01:50:46.843Z,28.77
2019-03-09T01:53:16.699Z,25.93
2019-03-09T01:55:46.650Z,25.30
2019-03-09T01:58:16.143Z,23.03
2019-03-09T02:00:45.625Z,24.77
2019-03-09T02:03:15.456Z,23.93
2019-03-09T02:05:44.899Z,25.40
2019-03-09T02:08:13.987Z,23.10
2019-03-09T02:10:44.047Z,18.60
2019-03-09T02:13:14.032Z,15.87
2019-03-09T02:15:43.750Z,16.27
2019-03-09T02:18:13.187Z,17.83
2019-03-09T02:20:42.347Z,16.90
2019-03-09T02:23:12.147Z,13.13
2019-03-09T02:25:41.571Z,12.77
2019-03-09T02:28:10.993Z,11.83
2019-03-09T02:30:40.705Z,11.47
2019-03-09T02:33:10.728Z,12.97
2019-03-09T02:35:40.336Z,11.33
2019-03-09T02:38:40.561Z,11.57
2019-03-09T02:41:10.383Z,13.47
2019-03-09T02:43:40.148Z,13.03
2019-03-09T02:46:09.589Z,10.57
2019-03-09T02:48:39.084Z,10.80
2019-03-09T02:51:08.250Z,9.40
2019-03-09T02:53:37.725Z,8.17
2019-03-09T02:56:07.510Z,9.67
2019-03-09T02:58:36.970Z,10.07
2019-03-09T03:01:34.543Z,11.20
2019-03-09T03:04:04.280Z,9.77
2019-03-09T03:06:33.350Z,8.87
2019-03-09T03:09:04.739Z,10.27
2019-03-09T03:11:34.255Z,10.43
2019-03-09T03:14:03.730Z,9.73
2019-03-09T03:16:33.572Z,8.00
2019-03-09T03:19:03.396Z,11.10
2019-03-09T03:21:32.717Z,8.20
2019-03-09T03:24:02.347Z,9.77
2019-03-09T03:26:32.001Z,11.83
2019-03-09T03:29:01.175Z,7.77
2019-03-09T03:31:30.627Z,8.20
2019-03-09T03:34:00.447Z,8.40
2019-03-09T03:36:29.843Z,8.53
2019-03-09T03:38:59.403Z,8.07
2019-03-09T03:41:28.844Z,8.30
2019-03-09T03:43:58.100Z,10.23
2019-03-09T03:46:27.950Z,7.23
2019-03-09T03:48:57.679Z,6.40
2019-03-09T03:51:27.695Z,8.87
2019-03-09T03:53:56.778Z,5.93
2019-03-09T03:56:25.855Z,8.83
2019-03-09T03:58:55.820Z,8.23
2019-03-09T04:01:25.342Z,8.50
2019-03-09T04:03:54.863Z,8.57
2019-03-09T04:06:24.553Z,7.60
2019-03-09T04:08:54.324Z,8.40
2019-03-09T04:11:24.794Z,6.80
2019-03-09T04:13:53.940Z,8.70
2019-03-09T04:16:23.741Z,7.40
2019-03-09T04:18:53.100Z,8.47
2019-03-09T04:21:23.776Z,8.53
2019-03-09T04:23:53.534Z,7.00
2019-03-09T04:26:23.390Z,9.73
2019-03-09T04:28:52.798Z,9.67
2019-03-09T04:31:21.880Z,14.47
2019-03-09T04:33:51.721Z,13.70
2019-03-09T04:36:20.786Z,13.40
2019-03-09T04:38:50.355Z,11.53
2019-03-09T04:41:19.858Z,11.63
2019-03-09T04:43:49.649Z,11.20
2019-03-09T04:46:19.359Z,11.80
2019-03-09T04:48:48.790Z,11.57
2019-03-09T04:51:18.122Z,11.60
2019-03-09T04:53:47.555Z,9.73
2019-03-09T04:56:17.825Z,11.67
2019-03-09T04:58:47.519Z,10.43
2019-03-09T05:01:17.196Z,12.50
2019-03-09T05:03:49.057Z,12.20
2019-03-09T05:06:19.059Z,11.93
2019-03-09T05:09:24.835Z,10.70
2019-03-09T05:11:54.254Z,11.77
2019-03-09T05:14:25.375Z,9.93
2019-03-09T05:16:54.768Z,8.53
2019-03-09T05:19:24.556Z,10.43
2019-03-09T05:21:54.085Z,10.97
2019-03-09T05:24:23.063Z,12.27
2019-03-09T05:26:52.516Z,10.53
2019-03-09T05:29:22.234Z,9.03
2019-03-09T05:31:51.644Z,11.30
2019-03-09T05:34:21.514Z,12.67
2019-03-09T05:36:51.356Z,11.87
2019-03-09T05:39:20.793Z,10.77
2019-03-09T05:41:49.960Z,11.63
2019-03-09T05:44:19.386Z,11.40
2019-03-09T05:46:49.945Z,9.10
2019-03-09T05:49:20.195Z,11.87
2019-03-09T05:52:25.299Z,10.03
2019-03-09T05:54:54.370Z,8.50
2019-03-09T05:57:23.726Z,9.13
2019-03-09T05:59:53.194Z,9.20
2019-03-09T06:02:22.616Z,10.13
2019-03-09T06:04:52.071Z,11.17
2019-03-09T06:07:21.411Z,11.20
2019-03-09T06:09:50.514Z,11.03
2019-03-09T06:12:19.837Z,9.03
2019-03-09T06:14:49.601Z,9.00
2019-03-09T06:17:18.947Z,13.10
2019-03-09T06:19:48.463Z,10.13
2019-03-09T06:22:18.573Z,8.23
2019-03-09T06:24:47.620Z,10.77
2019-03-09T06:27:17.737Z,10.73
2019-03-09T06:29:47.244Z,15.90
2019-03-09T06:33:03.129Z,11.07
2019-03-09T06:35:32.696Z,12.53
2019-03-09T06:38:22.498Z,13.17
2019-03-09T06:40:52.353Z,14.83
2019-03-09T06:43:21.728Z,17.87
2019-03-09T06:45:50.874Z,14.10
2019-03-09T06:48:21.023Z,13.97
2019-03-09T06:50:50.391Z,13.60
2019-03-09T06:53:20.049Z,9.73
2019-03-09T06:55:49.845Z,9.00
2019-03-09T06:58:18.945Z,8.20
2019-03-09T07:00:49.111Z,11.33
2019-03-09T07:03:19.291Z,9.60
2019-03-09T07:05:49.218Z,9.33
2019-03-09T07:08:19.015Z,11.33
2019-03-09T07:10:48.898Z,9.97
2019-03-09T07:13:18.829Z,10.27
2019-03-09T07:15:49.146Z,11.10
2019-03-09T07:18:20.400Z,10.00
2019-03-09T07:20:50.329Z,11.03
2019-03-09T07:23:20.277Z,10.10
2019-03-09T07:25:49.806Z,8.73
2019-03-09T07:28:19.121Z,10.37
2019-03-09T07:30:49.100Z,16.23
2019-03-09T07:33:19.018Z,15.87
2019-03-09T07:35:48.733Z,10.90
2019-03-09T07:38:18.889Z,7.70
2019-03-09T07:40:48.569Z,9.47
2019-03-09T07:43:18.606Z,8.23
2019-03-09T07:45:48.591Z,9.40
2019-03-09T07:48:18.424Z,8.57
2019-03-09T07:50:47.549Z,6.23
2019-03-09T07:53:17.355Z,11.20
2019-03-09T07:55:47.970Z,9.33
2019-03-09T07:58:17.775Z,10.13
2019-03-09T08:00:46.999Z,9.53
2019-03-09T08:03:16.975Z,8.97
2019-03-09T08:05:47.161Z,8.97
2019-03-09T08:08:17.933Z,8.17
2019-03-09T08:10:47.900Z,8.40
2019-03-09T08:13:17.518Z,7.60
2019-03-09T08:15:47.594Z,8.63
2019-03-09T08:18:17.006Z,9.07
2019-03-09T08:20:47.166Z,8.20
2019-03-09T08:23:17.043Z,8.47
2019-03-09T08:25:47.012Z,11.07
2019-03-09T08:28:16.711Z,11.00
2019-03-09T08:30:46.207Z,9.30
2019-03-09T08:33:16.238Z,10.80
2019-03-09T08:35:45.317Z,9.43
2019-03-09T08:38:14.786Z,7.87
2019-03-09T08:40:44.123Z,10.33
2019-03-09T08:43:13.594Z,8.90
2019-03-09T08:45:43.466Z,7.97
2019-03-09T08:48:12.652Z,9.10
2019-03-09T08:50:41.935Z,6.23
2019-03-09T08:53:12.241Z,6.60
2019-03-09T08:55:41.834Z,9.27
2019-03-09T08:58:11.517Z,7.93
2019-03-09T09:00:40.931Z,6.90
2019-03-09T09:03:10.418Z,10.07
2019-03-09T09:05:39.899Z,10.23
2019-03-09T09:08:09.406Z,8.93
2019-03-09T09:10:38.883Z,8.53
2019-03-09T09:13:08.592Z,8.97
2019-03-09T09:15:38.244Z,18.93
2019-03-09T09:18:08.191Z,8.50
2019-03-09T09:20:38.168Z,8.13
2019-03-09T09:23:08.155Z,7.10
2019-03-09T09:25:37.493Z,10.30
2019-03-09T09:28:07.126Z,8.80
2019-03-09T09:30:36.889Z,9.43
2019-03-09T09:33:06.025Z,7.97
2019-03-09T09:35:35.777Z,10.50
2019-03-09T09:38:05.673Z,7.80
2019-03-09T09:40:35.038Z,8.50
2019-03-09T09:43:05.236Z,8.40
2019-03-09T09:45:34.700Z,11.53
2019-03-09T09:48:04.536Z,8.87
2019-03-09T09:50:33.930Z,8.30
2019-03-09T09:53:04.413Z,11.40
2019-03-09T09:55:36.387Z,12.73
2019-03-09T09:58:06.195Z,9.00
2019-03-09T10:00:35.690Z,12.03
2019-03-09T10:03:05.599Z,6.93
2019-03-09T10:05:35.202Z,7.47
2019-03-09T10:08:05.260Z,11.57
2019-03-09T10:10:34.408Z,7.63
2019-03-09T10:13:03.870Z,6.43
2019-03-09T10:15:33.071Z,9.30
2019-03-09T10:18:02.830Z,5.83
2019-03-09T10:20:31.859Z,7.97
2019-03-09T10:23:04.710Z,6.80
2019-03-09T10:25:32.111Z,6.83
2019-03-09T10:28:01.616Z,5.87
2019-03-09T10:30:31.346Z,7.20
2019-03-09T10:33:00.669Z,9.20
2019-03-09T10:35:30.436Z,10.57
2019-03-09T10:37:59.826Z,18.93
2019-03-09T10:40:28.967Z,25.40
2019-03-09T10:42:58.050Z,12.87
2019-03-09T10:45:27.166Z,11.67
2019-03-09T10:47:57.365Z,21.90
2019-03-09T10:50:27.548Z,20.20
2019-03-09T10:52:57.579Z,23.80
2019-03-09T10:55:27.404Z,23.87
2019-03-09T10:57:56.792Z,14.77
2019-03-09T11:00:28.677Z,13.23
2019-03-09T11:02:58.476Z,10.70
2019-03-09T11:05:27.655Z,15.33
2019-03-09T11:07:57.323Z,11.37
2019-03-09T11:10:26.846Z,23.80
2019-03-09T11:12:55.917Z,7.47
2019-03-09T11:15:26.085Z,8.87
2019-03-09T11:17:55.930Z,8.73
2019-03-09T11:20:26.411Z,5.60
2019-03-09T11:22:55.654Z,5.30
2019-03-09T11:25:25.215Z,6.47
2019-03-09T11:27:54.575Z,7.83
2019-03-09T11:30:25.455Z,6.23
2019-03-09T11:32:55.479Z,7.13
2019-03-09T11:35:25.523Z,5.90
2019-03-09T11:37:54.702Z,6.97
2019-03-09T11:40:24.442Z,6.20
2019-03-09T11:42:54.428Z,6.20
2019-03-09T11:45:24.075Z,5.27
2019-03-09T11:47:53.893Z,4.97
2019-03-09T11:50:23.007Z,5.73
2019-03-09T11:52:52.818Z,5.13
2019-03-09T11:55:22.624Z,5.90
2019-03-09T11:57:52.404Z,5.60
2019-03-09T12:00:25.871Z,8.43
2019-03-09T12:02:55.152Z,6.47
2019-03-09T12:05:25.060Z,6.50
2019-03-09T12:07:54.560Z,8.93
2019-03-09T12:10:24.533Z,10.57
2019-03-09T12:12:53.715Z,11.80
2019-03-09T12:15:23.682Z,11.23
2019-03-09T12:17:52.852Z,9.87
2019-03-09T12:20:24.530Z,8.70
2019-03-09T12:23:01.206Z,9.37
2019-03-09T12:25:25.913Z,10.60
2019-03-09T12:27:55.060Z,7.83
2019-03-09T12:30:24.509Z,9.03
2019-03-09T12:32:53.880Z,8.43
2019-03-09T12:35:23.845Z,6.77
2019-03-09T12:37:53.245Z,7.87
2019-03-09T12:40:22.310Z,10.00
2019-03-09T12:42:51.676Z,6.97
2019-03-09T12:45:21.556Z,7.27
2019-03-09T12:47:51.352Z,10.90
2019-03-09T12:50:20.495Z,6.93
2019-03-09T12:52:50.377Z,7.83
2019-03-09T12:55:19.856Z,7.23
2019-03-09T12:57:49.271Z,8.03
2019-03-09T13:00:18.722Z,8.87
2019-03-09T13:02:47.784Z,7.17
2019-03-09T13:05:17.113Z,6.80
2019-03-09T13:07:46.281Z,13.60
2019-03-09T13:10:15.825Z,7.30
2019-03-09T13:12:45.648Z,9.07
2019-03-09T13:15:15.217Z,8.80
2019-03-09T13:17:44.390Z,7.27
2019-03-09T13:20:13.642Z,9.03
2019-03-09T13:22:43.075Z,7.30
2019-03-09T13:25:12.541Z,9.80
2019-03-09T13:27:41.648Z,8.43
2019-03-09T13:30:13.304Z,8.17
2019-03-09T13:32:43.107Z,10.40
2019-03-09T13:35:12.889Z,9.53
2019-03-09T13:37:43.017Z,8.33
2019-03-09T13:40:12.500Z,8.47
2019-03-09T13:42:42.230Z,10.77
2019-03-09T13:45:12.647Z,10.07
2019-03-09T13:47:42.100Z,12.57
2019-03-09T13:50:11.966Z,11.53
2019-03-09T13:52:42.134Z,14.80
2019-03-09T13:55:11.307Z,11.70
2019-03-09T13:57:41.806Z,12.20
2019-03-09T14:00:12.407Z,13.70
2019-03-09T14:02:42.261Z,11.43
2019-03-09T14:05:11.412Z,11.33
2019-03-09T14:07:41.214Z,11.63
2019-03-09T14:10:11.422Z,11.00
2019-03-09T14:12:41.305Z,11.30
2019-03-09T14:15:12.576Z,11.40
2019-03-09T14:17:42.461Z,11.73
2019-03-09T14:20:12.601Z,12.70
2019-03-09T14:22:42.148Z,12.67
2019-03-09T14:25:11.335Z,13.53
2019-03-09T14:27:43.472Z,10.70
2019-03-09T14:30:14.003Z,12.97
2019-03-09T14:32:43.124Z,11.53
2019-03-09T14:35:17.085Z,9.43
2019-03-09T14:37:47.130Z,8.00
2019-03-09T14:40:17.312Z,11.20
2019-03-09T14:42:47.669Z,8.57
2019-03-09T14:45:18.893Z,8.03
2019-03-09T14:47:50.279Z,8.83
2019-03-09T14:50:20.484Z,10.20
2019-03-09T14:52:49.944Z,8.73
2019-03-09T14:55:19.537Z,13.17
2019-03-09T14:57:49.295Z,11.57
2019-03-09T15:00:20.776Z,15.67
2019-03-09T15:02:50.985Z,17.27
2019-03-09T15:05:20.784Z,22.17
2019-03-09T15:07:51.239Z,25.80
2019-03-09T15:10:20.710Z,23.43
2019-03-09T15:12:50.195Z,21.77
2019-03-09T15:15:19.627Z,17.20
2019-03-09T15:17:49.310Z,13.90
2019-03-09T15:20:18.959Z,16.23
2019-03-09T15:22:48.388Z,14.87
2019-03-09T15:25:18.210Z,12.70
2019-03-09T15:27:47.298Z,10.43
2019-03-09T15:30:17.049Z,11.20
2019-03-09T15:32:46.495Z,15.07
2019-03-09T15:35:16.203Z,13.13
2019-03-09T15:37:48.979Z,14.83
2019-03-09T15:40:18.542Z,14.80
2019-03-09T15:42:47.679Z,11.30
2019-03-09T15:45:17.467Z,16.80
2019-03-09T15:47:47.363Z,16.10
2019-03-09T15:50:16.510Z,15.83
2019-03-09T15:52:45.605Z,17.17
2019-03-09T15:55:15.419Z,17.97
2019-03-09T15:57:45.064Z,16.87
2019-03-09T16:00:18.156Z,17.93
2019-03-09T16:02:47.213Z,17.87
2019-03-09T16:05:16.938Z,30.03
2019-03-09T16:07:46.468Z,26.03
2019-03-09T16:10:16.019Z,30.37
2019-03-09T16:12:45.563Z,20.67
2019-03-09T16:15:15.220Z,19.93
2019-03-09T16:17:44.687Z,18.43
2019-03-09T16:20:15.685Z,19.13
2019-03-09T16:22:45.515Z,19.90
2019-03-09T16:25:15.440Z,18.73
2019-03-09T16:27:45.267Z,18.63
2019-03-09T16:30:16.559Z,19.13
2019-03-09T16:32:45.669Z,17.03
2019-03-09T16:35:15.174Z,19.37
2019-03-09T16:37:44.884Z,21.03
2019-03-09T16:40:14.943Z,21.47
2019-03-09T16:42:44.886Z,22.13
2019-03-09T16:45:14.191Z,21.37
2019-03-09T16:47:43.698Z,23.00
2019-03-09T16:50:13.211Z,23.47
2019-03-09T16:52:42.746Z,27.17
2019-03-09T16:55:12.432Z,30.63
2019-03-09T16:57:41.651Z,27.20
2019-03-09T17:00:14.587Z,24.10
2019-03-09T17:02:49.874Z,26.10
2019-03-09T17:05:19.188Z,21.77
2019-03-09T17:07:48.375Z,22.13
2019-03-09T17:10:19.309Z,22.73
2019-03-09T17:12:49.396Z,29.03
2019-03-09T17:15:18.743Z,27.50
2019-03-09T17:17:48.861Z,28.43
2019-03-09T17:20:18.136Z,24.30
2019-03-09T17:22:48.399Z,26.43
2019-03-09T17:25:18.037Z,24.83
2019-03-09T17:27:47.484Z,22.57
2019-03-09T17:30:17.104Z,19.60
2019-03-09T17:32:47.060Z,18.03
2019-03-09T17:35:16.430Z,14.90
2019-03-09T17:37:46.059Z,20.03
2019-03-09T17:40:15.695Z,20.20
2019-03-09T17:42:45.578Z,16.97
2019-03-09T17:45:17.220Z,17.27
2019-03-09T17:47:47.267Z,17.77
2019-03-09T17:50:16.896Z,13.93
2019-03-09T17:52:46.270Z,15.00
2019-03-09T17:55:15.655Z,12.93
2019-03-09T17:57:44.952Z,9.77
2019-03-09T18:00:17.471Z,10.73
2019-03-09T18:02:47.011Z,13.87
2019-03-09T18:05:19.390Z,9.27
2019-03-09T18:11:21.341Z,7.67
2019-03-09T18:13:51.209Z,7.50
2019-03-09T18:16:21.106Z,9.40
2019-03-09T18:18:50.992Z,9.10
2019-03-09T18:21:20.822Z,5.33
2019-03-09T18:23:51.274Z,6.03
2019-03-09T18:26:20.943Z,6.93
2019-03-09T18:28:50.348Z,7.77
2019-03-09T18:31:20.365Z,7.93
2019-03-09T18:33:49.739Z,10.27
2019-03-09T18:36:19.124Z,8.43
2019-03-09T18:38:48.552Z,7.23
2019-03-09T18:41:18.424Z,6.77
2019-03-09T18:43:48.112Z,7.63
2019-03-09T18:46:18.448Z,8.67
2019-03-09T18:48:47.973Z,5.73
2019-03-09T18:51:17.748Z,6.73
2019-03-09T18:53:46.927Z,6.43
2019-03-09T18:56:16.700Z,6.77
2019-03-09T18:58:45.922Z,7.03
2019-03-09T19:01:15.372Z,7.93
2019-03-09T19:03:46.141Z,6.60
2019-03-09T19:06:15.647Z,6.60
2019-03-09T19:08:45.109Z,6.50
2019-03-09T19:11:14.245Z,7.13
2019-03-09T19:13:43.681Z,8.17
2019-03-09T19:16:13.763Z,7.33
2019-03-09T19:18:43.360Z,8.57
2019-03-09T19:21:13.599Z,7.87
2019-03-09T19:23:43.876Z,7.70
2019-03-09T19:26:13.379Z,7.53
2019-03-09T19:28:42.655Z,7.70
2019-03-09T19:31:12.577Z,8.70
2019-03-09T19:33:42.030Z,9.87
2019-03-09T19:36:11.185Z,8.40
2019-03-09T19:38:40.270Z,6.63
2019-03-09T19:41:09.754Z,10.97
2019-03-09T19:43:39.012Z,6.27
2019-03-09T19:46:09.042Z,9.70
2019-03-09T19:48:38.500Z,6.53
2019-03-09T19:51:07.971Z,7.97
2019-03-09T19:53:38.158Z,8.43
2019-03-09T19:56:08.419Z,7.50
2019-03-09T19:58:37.879Z,8.70
2019-03-09T20:01:08.015Z,7.97
2019-03-09T20:03:37.988Z,7.30
2019-03-09T20:06:07.506Z,8.77
2019-03-09T20:08:37.025Z,9.00
2019-03-09T20:11:06.458Z,8.20
2019-03-09T20:13:36.196Z,8.67
2019-03-09T20:16:05.526Z,7.73
2019-03-09T20:18:34.733Z,8.33
2019-03-09T20:21:04.442Z,10.70
2019-03-09T20:23:34.021Z,7.80
2019-03-09T20:26:03.859Z,11.17
2019-03-09T20:28:33.515Z,5.47
2019-03-09T20:31:03.312Z,7.23
2019-03-09T20:33:32.970Z,7.80
2019-03-09T20:36:02.870Z,9.43
2019-03-09T20:38:32.277Z,8.20
2019-03-09T20:41:02.116Z,10.40
2019-03-09T20:43:32.105Z,10.17
2019-03-09T20:46:01.623Z,15.87
2019-03-09T20:48:31.068Z,9.93
2019-03-09T20:51:01.082Z,10.47
2019-03-09T20:53:30.572Z,10.37
2019-03-09T20:56:00.271Z,8.93
2019-03-09T20:58:29.662Z,12.20
2019-03-09T21:00:59.468Z,13.27
2019-03-09T21:03:29.387Z,8.87
2019-03-09T21:05:59.223Z,9.43
2019-03-09T21:08:28.666Z,10.60
2019-03-09T21:11:03.885Z,10.80
2019-03-09T21:13:30.552Z,9.43
2019-03-09T21:16:00.377Z,6.93
2019-03-09T21:18:29.901Z,6.23
2019-03-09T21:20:59.052Z,5.97
2019-03-09T21:23:28.256Z,9.07
2019-03-09T21:25:57.532Z,6.10
2019-03-09T21:28:26.693Z,6.40
2019-03-09T21:30:56.508Z,6.03
2019-03-09T21:33:26.552Z,7.43
2019-03-09T21:35:55.727Z,9.90
2019-03-09T21:38:25.971Z,9.83
